Time;durP1;ratioP1;P1;durP2;ratioP2;P2;SDS_P1;SDS_P2;PMS_P1;PMS_P2;Temp;Humidity;BMP_temperature;BMP_pressure;BME280_temperature;BME280_humidity;BME280_pressure;Samples;Min_cycle;Max_cycle;Signal;HPM_P1;HPM_P2
2021/09/25 00:00:05;;;;;;;22.08;14.52;;;;;;;18.62;83.61;101013.88;6277607;22;20091;-72
2021/09/25 00:02:50;;;;;;;21.17;14.40;;;;;;;18.52;84.01;101017.84;6277688;22;20012;-71
2021/09/25 00:05:38;;;;;;;22.83;14.90;;;;;;;18.14;88.74;101016.03;6275070;22;20018;-72
2021/09/25 00:08:24;;;;;;;22.27;14.55;;;;;;;18.48;85.58;101022.44;6276346;22;20504;-71
2021/09/25 00:11:10;;;;;;;20.08;15.10;;;;;;;17.90;90.71;101028.56;6276455;22;20004;-71
2021/09/25 00:13:57;;;;;;;23.50;14.25;;;;;;;18.65;86.08;101032.31;6276970;22;20061;-71
2021/09/25 00:16:42;;;;;;;22.52;13.90;;;;;;;18.60;85.78;101042.25;6274893;22;20029;-70
2021/09/25 00:19:28;;;;;;;20.00;13.55;;;;;;;18.76;84.57;101049.47;6277771;22;20398;-71
2021/09/25 00:22:14;;;;;;;18.27;13.82;;;;;;;18.93;82.85;101046.06;6276426;22;20003;-71
2021/09/25 00:25:01;;;;;;;21.13;14.27;;;;;;;18.56;85.80;101043.31;6276509;22;20337;-71
2021/09/25 00:27:48;;;;;;;21.70;13.55;;;;;;;18.64;85.87;101042.06;6277861;22;20452;-71
2021/09/25 00:30:33;;;;;;;18.25;13.38;;;;;;;18.58;86.23;101044.13;6275434;22;20007;-70
2021/09/25 00:33:19;;;;;;;17.40;12.93;;;;;;;18.56;86.81;101054.81;6274971;22;20008;-70
2021/09/25 00:36:05;;;;;;;20.10;13.80;;;;;;;18.91;83.86;101059.41;6276272;22;20019;-71
2021/09/25 00:38:51;;;;;;;19.30;13.02;;;;;;;18.88;83.92;101063.97;6277567;22;20030;-71
2021/09/25 00:41:37;;;;;;;22.35;14.25;;;;;;;18.77;85.04;101060.97;6275335;22;20008;-70
2021/09/25 00:44:23;;;;;;;21.48;13.52;;;;;;;18.80;85.92;101066.09;6277335;22;20026;-71
2021/09/25 00:47:11;;;;;;;20.98;13.85;;;;;;;18.65;87.44;101059.69;6277093;22;20003;-71
2021/09/25 00:49:57;;;;;;;18.00;13.55;;;;;;;18.79;85.78;101057.31;6278690;22;20073;-71
2021/09/25 00:52:43;;;;;;;20.23;13.70;;;;;;;18.88;85.34;101059.53;6276925;22;20310;-72
2021/09/25 00:55:28;;;;;;;19.65;13.55;;;;;;;18.58;89.68;101058.25;6278301;22;20004;-73
2021/09/25 00:58:14;;;;;;;18.05;12.73;;;;;;;18.92;86.57;101050.50;6277282;22;20004;-71
2021/09/25 01:01:01;;;;;;;23.20;13.25;;;;;;;19.12;84.98;101055.75;6278387;22;20382;-72
2021/09/25 01:03:47;;;;;;;18.13;13.32;;;;;;;19.00;85.74;101061.63;6276896;22;20011;-70
2021/09/25 01:06:33;;;;;;;19.02;13.25;;;;;;;18.80;88.43;101058.16;6278618;22;20032;-70
2021/09/25 01:09:18;;;;;;;18.40;13.40;;;;;;;18.28;93.97;101059.59;6278608;22;20120;-71
2021/09/25 01:12:05;;;;;;;21.33;13.75;;;;;;;18.67;91.50;101065.81;6278910;22;20074;-70
2021/09/25 01:14:51;;;;;;;20.23;13.60;;;;;;;18.40;94.35;101068.81;6276994;22;20441;-71
2021/09/25 01:17:38;;;;;;;19.55;13.25;;;;;;;18.64;92.44;101067.72;6276247;22;20015;-71
2021/09/25 01:20:24;;;;;;;17.73;12.65;;;;;;;18.59;94.29;101080.34;6276729;22;20004;-72
2021/09/25 01:23:09;;;;;;;23.23;14.75;;;;;;;18.63;95.52;101074.84;6278122;22;20112;-71
2021/09/25 01:25:55;;;;;;;19.60;14.10;;;;;;;18.43;97.76;101089.91;6280000;22;20314;-72
2021/09/25 01:28:42;;;;;;;23.10;14.30;;;;;;;18.47;97.01;101092.38;6278783;22;20034;-71
2021/09/25 01:31:28;;;;;;;18.55;14.00;;;;;;;18.23;98.85;101089.88;6276765;22;20314;-71
2021/09/25 01:34:14;;;;;;;18.73;14.00;;;;;;;18.63;95.57;101087.25;6276551;22;20008;-72
2021/09/25 01:37:00;;;;;;;22.48;14.80;;;;;;;18.50;96.12;101094.91;6276161;22;20004;-72
2021/09/25 01:39:46;;;;;;;20.05;14.05;;;;;;;18.37;97.38;101093.69;6277126;22;20386;-72
2021/09/25 01:42:32;;;;;;;19.05;13.82;;;;;;;18.44;96.63;101097.81;6278742;22;20003;-71
2021/09/25 01:45:18;;;;;;;18.60;13.95;;;;;;;18.36;97.67;101099.06;6279400;22;20015;-71
2021/09/25 01:48:04;;;;;;;22.23;13.82;;;;;;;18.44;97.36;101105.78;6277825;22;20007;-71
2021/09/25 01:50:50;;;;;;;20.00;14.20;;;;;;;18.56;96.63;101110.53;6276582;22;20008;-71
2021/09/25 01:53:36;;;;;;;21.48;13.93;;;;;;;17.96;100.00;101110.47;6276290;22;20004;-71
2021/09/25 01:56:22;;;;;;;17.98;14.38;;;;;;;17.77;100.00;101119.25;6278071;22;20016;-71
2021/09/25 01:59:08;;;;;;;18.70;14.40;;;;;;;17.46;100.00;101122.25;6277584;22;20008;-72
2021/09/25 02:01:54;;;;;;;19.42;14.10;;;;;;;17.68;100.00;101124.94;6276056;22;20051;-71
2021/09/25 02:04:46;;;;;;;24.98;14.27;;;;;;;18.04;100.00;101129.56;6278055;22;20013;-72
2021/09/25 02:07:32;;;;;;;19.05;14.07;;;;;;;18.15;100.00;101130.00;6279476;22;20422;-72
2021/09/25 02:10:18;;;;;;;17.33;13.88;;;;;;;17.78;100.00;101144.81;6278784;22;20011;-72
2021/09/25 02:13:04;;;;;;;19.13;13.02;;;;;;;17.99;100.00;101136.00;6277582;22;20314;-71
2021/09/25 02:15:49;;;;;;;19.88;13.00;;;;;;;18.21;100.00;101134.19;6279072;22;20018;-72
2021/09/25 02:18:36;;;;;;;22.27;12.73;;;;;;;18.11;100.00;101133.72;6277171;22;20018;-72
2021/09/25 02:21:22;;;;;;;20.35;13.57;;;;;;;17.97;100.00;101140.50;6276401;22;20410;-72
2021/09/25 02:24:08;;;;;;;20.08;13.50;;;;;;;18.13;100.00;101149.56;6277468;22;20011;-72
2021/09/25 02:26:54;;;;;;;18.13;12.65;;;;;;;18.07;100.00;101152.44;6277643;22;20418;-72
2021/09/25 02:29:40;;;;;;;18.80;13.07;;;;;;;18.32;100.00;101153.16;6275770;22;20410;-72
2021/09/25 02:32:26;;;;;;;18.50;13.70;;;;;;;18.37;100.00;101161.84;6277715;22;20004;-72
2021/09/25 02:35:13;;;;;;;18.58;13.35;;;;;;;18.17;100.00;101173.22;6275349;22;20035;-72
2021/09/25 02:37:59;;;;;;;18.77;13.32;;;;;;;18.12;100.00;101166.38;6278523;22;20058;-72
2021/09/25 02:40:45;;;;;;;18.20;13.60;;;;;;;18.17;100.00;101175.88;6277767;22;20041;-72
2021/09/25 02:43:30;;;;;;;18.38;13.00;;;;;;;17.65;100.00;101176.22;6275787;22;20078;-72
2021/09/25 02:46:16;;;;;;;16.98;13.30;;;;;;;17.82;100.00;101168.50;6278240;22;20014;-72
2021/09/25 02:49:02;;;;;;;18.55;13.82;;;;;;;17.88;100.00;101184.16;6277198;22;20007;-72
2021/09/25 02:51:49;;;;;;;21.83;13.07;;;;;;;17.42;100.00;101178.06;6276482;22;20433;-72
2021/09/25 02:54:34;;;;;;;19.02;12.73;;;;;;;17.25;100.00;101188.41;6277076;22;20007;-72
2021/09/25 02:57:20;;;;;;;17.40;12.55;;;;;;;16.86;100.00;101190.72;6278665;22;20007;-72
2021/09/25 03:00:10;;;;;;;19.40;11.85;;;;;;;17.46;100.00;101199.09;6278219;22;20008;-72
2021/09/25 03:02:56;;;;;;;16.77;12.40;;;;;;;17.57;100.00;101194.22;6277750;22;20077;-72
2021/09/25 03:05:42;;;;;;;19.98;12.95;;;;;;;16.73;100.00;101192.06;6276377;22;20007;-72
2021/09/25 03:08:28;;;;;;;21.15;13.68;;;;;;;16.41;100.00;101197.59;6277812;22;20025;-72
2021/09/25 03:11:13;;;;;;;22.23;13.25;;;;;;;16.38;100.00;101202.06;6276846;22;20097;-71
2021/09/25 03:13:59;;;;;;;19.23;13.43;;;;;;;16.44;100.00;101204.56;6277246;22;20311;-71
2021/09/25 03:16:45;;;;;;;19.45;13.25;;;;;;;16.87;100.00;101210.97;6278046;22;20007;-71
2021/09/25 03:19:31;;;;;;;17.30;12.90;;;;;;;16.99;100.00;101215.81;6278269;22;20007;-72
2021/09/25 03:22:17;;;;;;;19.95;13.00;;;;;;;17.01;100.00;101221.06;6277896;22;20007;-71
2021/09/25 03:25:07;;;;;;;16.95;12.30;;;;;;;17.00;100.00;101222.00;6275300;22;20015;-72
2021/09/25 03:27:54;;;;;;;17.88;12.10;;;;;;;16.79;100.00;101230.66;6278191;22;20019;-71
2021/09/25 03:30:40;;;;;;;18.40;12.25;;;;;;;16.67;100.00;101231.06;6276737;22;20046;-72
2021/09/25 03:33:25;;;;;;;15.57;11.35;;;;;;;16.33;100.00;101231.34;6278156;22;20027;-71
2021/09/25 03:36:11;;;;;;;20.38;11.13;;;;;;;16.46;100.00;101237.97;6276558;22;20003;-71
2021/09/25 03:38:57;;;;;;;15.30;11.52;;;;;;;16.86;100.00;101235.72;6275554;22;20014;-71
2021/09/25 03:41:43;;;;;;;23.02;12.77;;;;;;;17.03;100.00;101238.63;6276990;22;20050;-71
2021/09/25 03:44:29;;;;;;;17.45;12.48;;;;;;;16.47;100.00;101245.00;6276139;22;20390;-71
2021/09/25 03:47:15;;;;;;;22.25;12.68;;;;;;;16.99;100.00;101242.28;6276900;22;20007;-72
2021/09/25 03:50:02;;;;;;;18.20;12.57;;;;;;;16.49;100.00;101244.94;6278708;22;20010;-71
2021/09/25 03:52:48;;;;;;;16.63;12.10;;;;;;;16.49;100.00;101258.16;6275599;22;20008;-71
2021/09/25 03:55:34;;;;;;;16.70;12.05;;;;;;;16.61;100.00;101266.56;6275196;22;20018;-71
2021/09/25 03:58:19;;;;;;;17.55;12.50;;;;;;;16.54;100.00;101269.44;6276803;22;20008;-71
2021/09/25 04:01:06;;;;;;;15.15;12.07;;;;;;;16.06;100.00;101265.69;6274672;22;20364;-71
2021/09/25 04:03:54;;;;;;;17.75;11.82;;;;;;;16.59;100.00;101272.84;6276920;22;20003;-71
2021/09/25 04:06:40;;;;;;;19.02;12.57;;;;;;;16.60;100.00;101285.97;6273725;22;20019;-72
2021/09/25 04:09:25;;;;;;;16.33;11.50;;;;;;;16.71;100.00;101291.78;6277899;22;20008;-71
2021/09/25 04:12:11;;;;;;;20.05;12.80;;;;;;;16.77;100.00;101301.31;6275360;22;20004;-71
2021/09/25 04:14:57;;;;;;;20.13;13.73;;;;;;;16.62;100.00;101294.75;6274494;22;20370;-71
2021/09/25 04:17:43;;;;;;;17.00;13.18;;;;;;;16.54;100.00;101309.13;6278250;22;20015;-71
2021/09/25 04:20:29;;;;;;;20.38;12.00;;;;;;;16.74;100.00;101306.69;6277515;22;20078;-71
2021/09/25 04:23:14;;;;;;;17.98;12.38;;;;;;;16.61;100.00;101308.91;6277642;22;20355;-71
2021/09/25 04:26:00;;;;;;;18.05;12.00;;;;;;;16.37;100.00;101319.38;6276913;22;20007;-71
2021/09/25 04:28:46;;;;;;;23.50;12.73;;;;;;;16.39;100.00;101317.56;6277606;22;20414;-71
2021/09/25 04:31:34;;;;;;;16.90;12.77;;;;;;;16.87;100.00;101321.25;6276774;22;20022;-71
2021/09/25 04:34:20;;;;;;;17.92;12.75;;;;;;;16.93;100.00;101331.66;6276715;22;20011;-70
2021/09/25 04:37:06;;;;;;;17.48;12.18;;;;;;;17.01;100.00;101337.53;6276246;22;20014;-72
2021/09/25 04:39:51;;;;;;;19.65;12.45;;;;;;;17.04;100.00;101333.00;6277472;22;20003;-72
2021/09/25 04:42:37;;;;;;;19.58;12.30;;;;;;;17.24;100.00;101329.69;6274292;22;20003;-71
2021/09/25 04:45:23;;;;;;;18.70;13.25;;;;;;;17.16;100.00;101342.31;6276529;22;20003;-72
2021/09/25 04:48:09;;;;;;;16.30;12.32;;;;;;;17.15;100.00;101344.09;6276165;22;20007;-71
2021/09/25 04:50:55;;;;;;;20.83;13.35;;;;;;;17.25;100.00;101347.31;6275380;22;20019;-71
2021/09/25 04:53:41;;;;;;;20.77;12.93;;;;;;;17.37;100.00;101342.41;6276958;22;20003;-71
2021/09/25 04:56:26;;;;;;;18.05;13.05;;;;;;;17.25;100.00;101347.31;6276514;22;20022;-71
2021/09/25 04:59:12;;;;;;;22.42;13.88;;;;;;;16.81;100.00;101353.22;6276281;22;20039;-71
2021/09/25 05:01:58;;;;;;;21.17;12.88;;;;;;;16.82;100.00;101347.00;6274908;22;20302;-71
2021/09/25 05:04:44;;;;;;;18.20;13.95;;;;;;;16.16;100.00;101346.47;6276676;22;20011;-71
2021/09/25 05:07:30;;;;;;;20.98;13.55;;;;;;;15.97;100.00;101362.03;6274632;22;20153;-72
2021/09/25 05:10:16;;;;;;;19.27;13.45;;;;;;;16.18;100.00;101349.91;6278125;22;20061;-72
2021/09/25 05:13:02;;;;;;;19.50;13.73;;;;;;;16.37;100.00;101357.25;6274281;22;20086;-72
2021/09/25 05:15:48;;;;;;;16.42;12.90;;;;;;;16.81;100.00;101362.03;6274765;22;20004;-71
2021/09/25 05:18:34;;;;;;;20.85;13.52;;;;;;;16.51;100.00;101363.00;6273885;22;20069;-71
2021/09/25 05:21:21;;;;;;;18.13;13.68;;;;;;;16.48;100.00;101365.75;6277749;22;20077;-72
2021/09/25 05:24:07;;;;;;;18.88;13.30;;;;;;;16.69;100.00;101369.50;6275185;22;19999;-71
2021/09/25 05:26:55;;;;;;;21.13;13.98;;;;;;;16.65;100.00;101378.44;6276264;22;20116;-72
2021/09/25 05:29:41;;;;;;;20.80;14.40;;;;;;;17.20;100.00;101381.03;6277196;22;20141;-72
2021/09/25 05:32:27;;;;;;;18.10;13.32;;;;;;;17.06;100.00;101386.78;6276994;22;20007;-72
2021/09/25 05:35:13;;;;;;;20.05;12.88;;;;;;;17.47;100.00;101388.91;6278549;22;20037;-71
2021/09/25 05:37:59;;;;;;;20.10;13.52;;;;;;;17.37;100.00;101391.91;6278704;22;20003;-71
2021/09/25 05:40:45;;;;;;;24.60;14.25;;;;;;;16.96;100.00;101385.34;6278057;22;20092;-70
2021/09/25 05:43:30;;;;;;;21.20;13.63;;;;;;;17.72;100.00;101388.94;6277948;22;20074;-72
2021/09/25 05:46:18;;;;;;;21.15;14.70;;;;;;;17.47;100.00;101401.28;6277970;22;20007;-72
2021/09/25 05:49:04;;;;;;;22.17;14.27;;;;;;;17.46;100.00;101403.09;6276295;22;20097;-71
2021/09/25 05:51:50;;;;;;;19.42;13.82;;;;;;;17.49;100.00;101399.47;6279119;22;20398;-72
2021/09/25 05:54:37;;;;;;;18.95;13.07;;;;;;;16.86;100.00;101410.41;6277510;22;20008;-72
2021/09/25 05:57:22;;;;;;;22.17;14.18;;;;;;;17.08;100.00;101415.88;6277955;22;20008;-70
2021/09/25 06:00:09;;;;;;;18.75;13.45;;;;;;;17.18;100.00;101420.81;6277983;22;20039;-71
2021/09/25 06:02:57;;;;;;;19.33;12.88;;;;;;;16.87;100.00;101416.53;6276823;22;20010;-71
2021/09/25 06:05:43;;;;;;;19.85;13.07;;;;;;;17.51;100.00;101418.81;6276331;22;20079;-72
2021/09/25 06:08:28;;;;;;;14.95;11.73;;;;;;;17.94;100.00;101424.31;6276263;22;20023;-72
2021/09/25 06:11:14;;;;;;;20.38;12.80;;;;;;;17.89;100.00;101427.13;6277752;22;20384;-72
2021/09/25 06:14:00;;;;;;;19.92;11.70;;;;;;;17.67;100.00;101434.13;6278622;22;20069;-72
2021/09/25 06:16:46;;;;;;;17.85;11.18;;;;;;;17.49;100.00;101436.56;6277440;22;20007;-71
2021/09/25 06:19:32;;;;;;;19.17;13.60;;;;;;;17.87;100.00;101444.91;6278283;22;20434;-72
2021/09/25 06:22:18;;;;;;;14.70;11.23;;;;;;;18.08;100.00;101440.59;6277683;22;20022;-71
2021/09/25 06:25:04;;;;;;;19.40;10.73;;;;;;;18.03;100.00;101451.38;6278339;22;20087;-71
2021/09/25 06:27:50;;;;;;;14.90;10.77;;;;;;;17.83;100.00;101450.34;6278063;22;20007;-72
2021/09/25 06:30:41;;;;;;;15.23;9.88;;;;;;;17.39;100.00;101458.94;6275358;22;20362;-72
2021/09/25 06:33:27;;;;;;;14.48;9.45;;;;;;;18.24;100.00;101463.84;6277869;22;20007;-71
2021/09/25 06:36:13;;;;;;;12.95;9.68;;;;;;;18.34;100.00;101462.63;6277303;22;20007;-71
2021/09/25 06:39:00;;;;;;;15.70;10.75;;;;;;;18.12;100.00;101461.66;6277979;22;20004;-72
2021/09/25 06:41:46;;;;;;;12.52;9.32;;;;;;;18.15;100.00;101473.94;6275380;22;20020;-72
2021/09/25 06:44:31;;;;;;;13.48;9.68;;;;;;;18.46;100.00;101478.09;6277569;22;20014;-71
2021/09/25 06:47:17;;;;;;;12.43;9.85;;;;;;;18.67;100.00;101481.69;6274842;22;20015;-70
2021/09/25 06:50:04;;;;;;;14.60;9.30;;;;;;;17.95;100.00;101484.38;6277673;22;20008;-71
2021/09/25 06:52:50;;;;;;;12.48;8.85;;;;;;;18.60;100.00;101489.03;6275043;22;20292;-72
2021/09/25 06:55:35;;;;;;;21.15;10.05;;;;;;;18.60;100.00;101480.19;6277937;22;20083;-71
2021/09/25 06:58:21;;;;;;;15.52;8.75;;;;;;;19.43;100.00;101493.69;6278425;22;20057;-71
2021/09/25 07:01:08;;;;;;;15.93;8.82;;;;;;;18.88;100.00;101484.41;6277155;22;20015;-70
2021/09/25 07:03:53;;;;;;;13.10;9.35;;;;;;;19.12;100.00;101498.47;6277609;22;20004;-71
2021/09/25 07:06:40;;;;;;;11.15;8.82;;;;;;;19.01;100.00;101498.06;6275687;22;20395;-71
2021/09/25 07:09:26;;;;;;;15.20;9.63;;;;;;;18.71;100.00;101491.28;6276398;22;20018;-71
2021/09/25 07:12:12;;;;;;;14.63;8.98;;;;;;;19.57;99.95;101498.44;6276865;22;20012;-71
2021/09/25 07:14:58;;;;;;;12.07;9.70;;;;;;;19.45;100.00;101505.09;6275656;22;20003;-71
2021/09/25 07:17:43;;;;;;;13.65;8.52;;;;;;;19.92;96.55;101509.28;6277949;22;20003;-70
2021/09/25 07:20:29;;;;;;;16.08;8.30;;;;;;;19.40;98.78;101515.06;6276408;22;20306;-71
2021/09/25 07:23:15;;;;;;;17.73;8.50;;;;;;;19.37;98.60;101515.19;6276231;22;20408;-71
2021/09/25 07:26:01;;;;;;;16.55;9.00;;;;;;;19.26;98.71;101519.22;6276037;22;20031;-71
2021/09/25 07:28:46;;;;;;;18.30;8.32;;;;;;;20.32;91.75;101513.75;6277186;22;20347;-71
2021/09/25 07:31:35;;;;;;;12.95;8.60;;;;;;;20.27;90.48;101513.09;6276839;22;20102;-71
2021/09/25 07:34:22;;;;;;;11.38;8.27;;;;;;;20.76;88.51;101515.25;6277292;22;20003;-71
2021/09/25 07:37:08;;;;;;;11.98;8.60;;;;;;;20.67;87.07;101511.22;6275020;22;20069;-71
2021/09/25 07:39:54;;;;;;;11.93;9.00;;;;;;;20.83;85.22;101511.38;6276769;22;20105;-71
2021/09/25 07:42:40;;;;;;;13.70;8.73;;;;;;;20.54;89.03;101518.03;6276401;22;20302;-70
2021/09/25 07:45:26;;;;;;;13.65;8.38;;;;;;;21.36;84.51;101513.22;6275394;22;20007;-71
2021/09/25 07:48:11;;;;;;;18.05;8.93;;;;;;;21.21;84.38;101511.28;6276579;22;20469;-71
2021/09/25 07:50:57;;;;;;;14.52;9.27;;;;;;;21.12;84.09;101516.19;6275561;22;20008;-72
2021/09/25 07:53:43;;;;;;;11.90;8.60;;;;;;;21.22;83.93;101518.34;6276643;22;20018;-71
2021/09/25 07:56:29;;;;;;;12.88;8.63;;;;;;;21.52;80.13;101519.53;6276494;22;20039;-71
2021/09/25 07:59:14;;;;;;;13.15;8.30;;;;;;;21.31;79.64;101520.59;6277598;22;20012;-71
2021/09/25 08:02:01;;;;;;;11.73;7.88;;;;;;;22.56;73.94;101519.44;6277531;22;20305;-70
2021/09/25 08:04:46;;;;;;;13.43;7.57;;;;;;;22.41;76.44;101525.56;6276501;22;20003;-72
2021/09/25 08:07:32;;;;;;;8.95;7.13;;;;;;;22.41;72.51;101523.75;6276386;22;20019;-71
2021/09/25 08:10:18;;;;;;;11.05;7.57;;;;;;;23.12;69.65;101526.03;6275887;22;20014;-71
2021/09/25 08:13:04;;;;;;;15.32;8.75;;;;;;;23.19;72.93;101521.22;6275500;22;20319;-73
2021/09/25 08:15:50;;;;;;;17.75;8.90;;;;;;;23.74;69.76;101517.09;6276449;22;20030;-71
2021/09/25 08:18:36;;;;;;;12.10;8.43;;;;;;;23.71;70.69;101524.44;6275263;22;20330;-70
2021/09/25 08:21:21;;;;;;;15.68;8.57;;;;;;;24.11;66.46;101524.69;6275374;22;20018;-71
2021/09/25 08:24:07;;;;;;;30.60;12.77;;;;;;;24.39;66.63;101526.56;6274949;22;20414;-71
2021/09/25 08:26:53;;;;;;;12.15;7.80;;;;;;;24.67;64.05;101522.06;6274902;22;20087;-72
2021/09/25 08:29:39;;;;;;;11.55;7.50;;;;;;;24.45;63.68;101519.00;6274281;22;20014;-71
2021/09/25 08:32:25;;;;;;;12.02;7.15;;;;;;;24.23;62.54;101531.13;6275378;22;20003;-71
2021/09/25 08:35:11;;;;;;;13.00;6.70;;;;;;;24.62;61.19;101526.00;6274641;22;20007;-71
2021/09/25 08:37:57;;;;;;;7.97;6.03;;;;;;;24.81;59.36;101523.88;6276343;22;20041;-71
2021/09/25 08:40:43;;;;;;;8.43;5.82;;;;;;;24.86;58.33;101522.63;6276671;22;20061;-71
2021/09/25 08:43:29;;;;;;;10.82;5.82;;;;;;;25.12;56.00;101529.00;6276999;22;20004;-71
2021/09/25 08:46:15;;;;;;;6.53;5.22;;;;;;;24.85;55.90;101528.97;6275722;22;20004;-71
2021/09/25 08:49:02;;;;;;;11.45;4.90;;;;;;;25.54;54.50;101534.28;6275265;22;20042;-71
2021/09/25 08:51:48;;;;;;;11.43;5.53;;;;;;;25.59;52.10;101529.47;6276781;22;20008;-71
2021/09/25 08:54:33;;;;;;;6.95;5.07;;;;;;;25.33;53.42;101531.19;6275793;22;20341;-71
2021/09/25 08:57:19;;;;;;;7.05;5.32;;;;;;;25.27;53.74;101530.72;6275521;22;20004;-71
2021/09/25 09:00:23;;;;;;;8.52;4.53;;;;;;;25.26;53.49;101521.78;6275510;22;20008;-71
2021/09/25 09:03:20;;;;;;;11.48;4.82;;;;;;;25.20;52.65;101522.16;6275673;22;20046;-71
2021/09/25 09:06:19;;;;;;;8.50;4.53;;;;;;;25.36;51.79;101527.44;6274523;22;20030;-71
2021/09/25 09:09:08;;;;;;;9.43;4.07;;;;;;;25.02;52.53;101535.91;6275242;22;20442;-71
2021/09/25 09:11:54;;;;;;;12.60;4.07;;;;;;;25.04;51.26;101525.97;6277900;22;20012;-71
2021/09/25 09:14:47;;;;;;;7.15;4.10;;;;;;;24.58;52.41;101533.34;6276294;22;20153;-71
2021/09/25 09:17:33;;;;;;;7.13;4.60;;;;;;;24.96;52.29;101525.59;6276407;22;20027;-71
2021/09/25 09:20:19;;;;;;;5.55;3.83;;;;;;;24.91;52.21;101530.41;6278535;22;19999;-71
2021/09/25 09:23:13;;;;;;;4.90;4.03;;;;;;;24.72;52.52;101532.50;6277953;22;20004;-70
2021/09/25 09:26:00;;;;;;;5.82;4.28;;;;;;;24.69;52.72;101538.06;6278689;22;20015;-70
2021/09/25 09:28:47;;;;;;;5.95;4.35;;;;;;;24.30;53.49;101537.84;6275919;22;20004;-70
2021/09/25 09:31:38;;;;;;;5.97;4.38;;;;;;;24.29;52.97;101536.97;6277060;22;20003;-71
2021/09/25 09:34:35;;;;;;;5.32;4.00;;;;;;;24.17;53.16;101526.13;6278227;22;20302;-71
2021/09/25 09:37:21;;;;;;;6.18;4.38;;;;;;;24.72;52.91;101537.88;6276460;22;20007;-71
2021/09/25 09:40:08;;;;;;;8.18;4.82;;;;;;;24.12;55.02;101541.63;6276219;22;20335;-72
2021/09/25 09:42:54;;;;;;;7.15;4.65;;;;;;;24.36;53.54;101538.31;6277846;22;20086;-71
2021/09/25 09:45:40;;;;;;;7.47;5.25;;;;;;;24.65;53.72;101542.75;6278432;22;20012;-73
2021/09/25 09:48:26;;;;;;;10.68;4.80;;;;;;;24.90;52.74;101529.53;6277752;22;20358;-71
2021/09/25 09:51:12;;;;;;;10.23;5.47;;;;;;;25.20;51.80;101529.38;6278473;22;20008;-71
2021/09/25 09:54:00;;;;;;;6.82;5.28;;;;;;;24.83;51.79;101530.03;6277501;22;20091;-71
2021/09/25 09:56:46;;;;;;;6.82;5.47;;;;;;;25.35;52.30;101533.78;6278962;22;20077;-71
2021/09/25 09:59:32;;;;;;;10.45;5.28;;;;;;;24.66;52.64;101535.56;6276441;22;20015;-71
2021/09/25 10:02:18;;;;;;;11.40;5.47;;;;;;;24.71;52.12;101528.97;6275733;22;20003;-71
2021/09/25 10:05:05;;;;;;;7.35;5.18;;;;;;;25.06;50.62;101524.91;6277174;22;20007;-71
2021/09/25 10:07:51;;;;;;;10.65;6.20;;;;;;;25.26;50.38;101537.88;6277264;22;20024;-71
2021/09/25 10:10:37;;;;;;;9.10;7.00;;;;;;;25.20;50.90;101538.28;6275797;22;20007;-71
2021/09/25 10:13:23;;;;;;;7.75;5.15;;;;;;;25.39;50.61;101536.16;6278125;22;20078;-70
2021/09/25 10:16:10;;;;;;;7.15;4.53;;;;;;;25.17;49.55;101534.94;6276630;22;20007;-71
2021/09/25 10:18:57;;;;;;;10.10;4.80;;;;;;;25.64;47.84;101530.03;6277227;22;20410;-71
2021/09/25 10:21:45;;;;;;;8.00;4.55;;;;;;;26.33;46.78;101527.91;6276566;22;20004;-71
2021/09/25 10:24:37;;;;;;;6.15;4.68;;;;;;;25.78;46.69;101524.56;6275483;22;20000;-71
2021/09/25 10:27:27;;;;;;;8.82;5.55;;;;;;;26.02;46.41;101525.63;6277371;22;20347;-72
2021/09/25 10:30:14;;;;;;;8.93;4.97;;;;;;;25.86;46.25;101522.22;6278041;22;20033;-72
2021/09/25 10:33:15;;;;;;;6.57;5.07;;;;;;;25.92;46.48;101511.09;6277750;22;20012;-71
2021/09/25 10:36:01;;;;;;;14.50;5.30;;;;;;;26.52;46.23;101517.59;6275660;22;20323;-72
2021/09/25 10:38:46;;;;;;;8.00;4.93;;;;;;;26.36;45.34;101512.44;6276384;22;20065;-72
2021/09/25 10:41:42;;;;;;;16.73;5.05;;;;;;;26.54;46.02;101515.66;6276158;22;20008;-72
2021/09/25 10:44:33;;;;;;;9.32;5.03;;;;;;;26.72;44.46;101511.69;6276328;22;20004;-72
2021/09/25 10:47:22;;;;;;;10.88;5.57;;;;;;;26.51;44.36;101522.09;6275263;22;20018;-72
2021/09/25 10:50:14;;;;;;;11.15;5.75;;;;;;;26.57;44.51;101513.59;6277452;22;20014;-71
2021/09/25 10:53:24;;;;;;;11.80;8.77;;;;;;;27.09;44.00;101516.13;6276668;22;20003;-72
2021/09/25 10:56:26;;;;;;;7.32;5.72;;;;;;;26.92;43.64;101508.41;6277742;22;20003;-72
2021/09/25 10:59:12;;;;;;;10.32;5.65;;;;;;;26.64;43.59;101506.00;6277663;22;20323;-72
2021/09/25 11:01:58;;;;;;;11.23;5.88;;;;;;;26.71;43.36;101505.44;6276875;22;20004;-72
2021/09/25 11:04:44;;;;;;;9.13;5.75;;;;;;;27.29;42.03;101507.47;6276227;22;20046;-71
2021/09/25 11:07:41;;;;;;;9.43;5.72;;;;;;;27.93;41.14;101500.78;6274952;22;20016;-72
2021/09/25 11:10:38;;;;;;;8.30;5.30;;;;;;;27.62;40.40;101502.25;6276149;22;20007;-71
2021/09/25 11:14:05;;;;;;;12.32;5.72;;;;;;;27.71;40.67;101500.66;6276147;22;20016;-71
2021/09/25 11:16:53;;;;;;;11.35;5.70;;;;;;;27.32;40.09;101491.06;6278675;22;20078;-72
2021/09/25 11:19:51;;;;;;;11.10;5.43;;;;;;;27.41;40.29;101491.25;6276598;22;20004;-72
2021/09/25 11:22:47;;;;;;;9.55;3.70;;;;;;;27.31;37.89;101486.69;6276878;22;20298;-71
2021/09/25 11:25:33;;;;;;;9.35;3.95;;;;;;;27.51;37.96;101488.72;6276123;22;20077;-71
2021/09/25 11:28:22;;;;;;;12.43;5.35;;;;;;;27.58;38.54;101475.66;6276859;22;20000;-71
2021/09/25 11:31:09;;;;;;;8.63;5.10;;;;;;;27.28;39.20;101478.81;6276490;22;20009;-71
2021/09/25 11:33:55;;;;;;;20.33;5.78;;;;;;;28.08;38.32;101475.38;6275912;22;20004;-71
2021/09/25 11:36:41;;;;;;;20.15;5.32;;;;;;;28.59;36.88;101473.94;6274541;22;20137;-72
2021/09/25 11:39:45;;;;;;;7.05;4.05;;;;;;;28.09;36.62;101463.59;6276132;22;20015;-72
2021/09/25 11:42:32;;;;;;;6.90;4.00;;;;;;;28.33;35.80;101464.34;6274762;22;20007;-72
2021/09/25 11:45:18;;;;;;;5.95;3.25;;;;;;;27.36;35.73;101469.22;6277020;22;20007;-73
2021/09/25 11:48:05;;;;;;;8.43;3.30;;;;;;;28.44;35.20;101462.53;6276416;22;20022;-72
2021/09/25 11:50:53;;;;;;;5.10;3.00;;;;;;;28.86;33.99;101460.94;6276595;22;20018;-72
2021/09/25 11:53:44;;;;;;;5.90;2.78;;;;;;;27.77;34.93;101459.81;6276252;22;20008;-72
2021/09/25 11:56:34;;;;;;;7.35;3.20;;;;;;;28.92;33.41;101450.47;6275730;22;20438;-72
2021/09/25 11:59:25;;;;;;;5.70;2.63;;;;;;;28.55;33.17;101462.56;6276770;22;20083;-72
2021/09/25 12:02:10;;;;;;;3.47;2.63;;;;;;;28.37;32.89;101458.59;6275382;22;20402;-71
2021/09/25 12:04:56;;;;;;;4.97;2.75;;;;;;;27.96;33.87;101457.47;6275878;22;20003;-72
2021/09/25 12:07:44;;;;;;;8.10;2.90;;;;;;;28.91;32.94;101456.00;6275277;22;20418;-71
2021/09/25 12:10:36;;;;;;;4.75;2.97;;;;;;;28.81;32.71;101455.91;6275617;22;20467;-71
2021/09/25 12:13:37;;;;;;;3.80;2.85;;;;;;;28.44;33.39;101459.00;6276529;22;20073;-72
2021/09/25 12:16:23;;;;;;;5.03;2.97;;;;;;;27.96;33.67;101458.28;6276716;22;20035;-72
2021/09/25 12:19:09;;;;;;;5.97;2.90;;;;;;;28.74;32.90;101456.53;6275251;22;20087;-70
2021/09/25 12:21:55;;;;;;;4.88;3.03;;;;;;;28.62;33.25;101452.13;6275468;22;20004;-72
2021/09/25 12:24:40;;;;;;;10.13;3.30;;;;;;;28.76;32.75;101449.19;6276097;22;19999;-72
2021/09/25 12:27:28;;;;;;;9.25;3.38;;;;;;;28.20;33.46;101450.97;6276451;22;20362;-72
2021/09/25 12:30:15;;;;;;;6.45;3.33;;;;;;;28.00;34.01;101446.31;6276363;22;20012;-72
2021/09/25 12:33:02;;;;;;;8.90;3.13;;;;;;;28.31;33.85;101447.44;6277321;22;20004;-71
2021/09/25 12:36:00;;;;;;;7.63;3.17;;;;;;;28.10;33.45;101443.75;6276152;22;20315;-71
2021/09/25 12:38:47;;;;;;;5.03;3.20;;;;;;;28.06;33.54;101444.97;6276601;22;20007;-71
2021/09/25 12:41:34;;;;;;;6.25;3.70;;;;;;;28.12;34.12;101437.25;6275665;22;20016;-72